KYIP/YIP METAR and TAF weather

Enter ICAO airport designator
Station Type Date Time Source
KYIP METAR 2019/06/26 19:53 UTC NOAA

KYIP 261953Z 24013KT 10SM SCT070 32/14 A3007 RMK AO2 SLP174 T03170139


Station Type Date Time Source
KYIP Decoded METAR 2019/06/26 19:53 UTC NOAA

WILLOW RUN AIRPORT, MI, United States (KYIP) 42-14N 083-32W 215M
Jun 26, 2019 - 03:53 PM EDT / 2019.06.26 1953 UTC
Wind: from the WSW (240 degrees) at 15 MPH (13 KT):0
Visibility: 10 mile(s):0
Sky conditions: partly cloudy
Temperature: 89.1 F (31.7 C)
Dew Point: 57.0 F (13.9 C)
Relative Humidity: 33%
Pressure (altimeter): 30.07 in. Hg (1018 hPa)
ob: KYIP 261953Z 24013KT 10SM SCT070 32/14 A3007 RMK AO2 SLP174 T03170139
cycle: 20

Station Type Date Time Source
KYIP TAF 2019/06/26 18:22 UTC NOAA

TAF KYIP 261720Z 2618/2718 27014KT P6SM SCT060 SCT250
FM270200 VRB04KT P6SM SCT250
FM271400 17005KT P6SM FEW250

Example: see airport list